Time;durP1;ratioP1;P1;durP2;ratioP2;P2;SDS_P1;SDS_P2;PMS_P1;PMS_P2;Temp;Humidity;BMP_temperature;BMP_pressure;BME280_temperature;BME280_humidity;BME280_pressure;Samples;Min_cycle;Max_cycle;Signal;HPM_P1;HPM_P2
2022/04/30 00:00:17;;;;;;;6.73;2.87;;;;;;;18.78;29.59;100917.56;1681160;83;21606;-58
2022/04/30 00:02:44;;;;;;;6.17;3.27;;;;;;;18.73;29.84;100922.19;1681730;85;21489;-57
2022/04/30 00:05:11;;;;;;;7.97;4.10;;;;;;;18.67;29.93;100911.15;1679589;84;21192;-57
2022/04/30 00:07:39;;;;;;;8.33;3.40;;;;;;;18.62;30.01;100911.02;1679946;85;21375;-63
2022/04/30 00:10:08;;;;;;;5.57;3.50;;;;;;;18.74;29.76;100911.11;1678848;85;21420;-61
2022/04/30 00:12:36;;;;;;;5.20;3.37;;;;;;;18.55;30.19;100918.20;1670416;85;22345;-56
2022/04/30 00:15:05;;;;;;;5.80;3.40;;;;;;;18.60;30.07;100905.96;1680506;85;21796;-57
2022/04/30 00:17:33;;;;;;;7.97;4.10;;;;;;;18.80;29.99;100918.16;1659102;85;21189;-57
2022/04/30 00:20:03;;;;;;;5.87;3.87;;;;;;;18.85;29.92;100920.94;1679158;84;21223;-59
2022/04/30 00:22:31;;;;;;;7.87;3.50;;;;;;;18.83;30.00;100919.05;1680240;85;21574;-58
2022/04/30 00:24:59;;;;;;;5.27;2.60;;;;;;;18.74;30.20;100919.84;1680705;85;21286;-58
2022/04/30 00:27:26;;;;;;;4.60;2.30;;;;;;;18.61;30.34;100926.05;1679436;84;21235;-59
2022/04/30 00:29:54;;;;;;;5.23;2.10;;;;;;;18.57;30.43;100934.12;1679463;85;21368;-58
2022/04/30 00:32:22;;;;;;;4.57;1.73;;;;;;;18.57;30.50;100936.76;1680061;85;22438;-57
2022/04/30 00:34:49;;;;;;;3.20;1.70;;;;;;;18.54;30.54;100938.52;1680922;84;21713;-58
2022/04/30 00:37:16;;;;;;;3.73;1.57;;;;;;;18.50;30.55;100930.73;1679926;85;21921;-58
2022/04/30 00:39:44;;;;;;;5.30;2.80;;;;;;;18.48;30.54;100938.86;1680000;85;21195;-66
2022/04/30 00:42:12;;;;;;;4.37;2.10;;;;;;;18.51;30.60;100934.98;1679040;85;21277;-57
2022/04/30 00:44:39;;;;;;;5.17;2.63;;;;;;;18.52;30.48;100943.70;1680622;85;21245;-56
2022/04/30 00:47:06;;;;;;;5.33;2.67;;;;;;;18.57;30.51;100942.04;1679799;85;22065;-56
2022/04/30 00:49:34;;;;;;;4.10;2.30;;;;;;;18.51;30.45;100946.06;1658902;85;21371;-56
2022/04/30 00:52:03;;;;;;;8.50;2.30;;;;;;;18.55;30.47;100937.99;1679492;85;21326;-58
2022/04/30 00:54:33;;;;;;;4.23;2.17;;;;;;;18.57;30.49;100931.48;1679910;85;21408;-58
2022/04/30 00:57:03;;;;;;;5.03;1.63;;;;;;;18.54;30.51;100927.95;1680648;85;21427;-57
2022/04/30 00:59:34;;;;;;;4.90;2.00;;;;;;;18.61;30.39;100922.09;1680287;85;21123;-60
2022/04/30 01:01:59;;;;;;;3.10;1.73;;;;;;;18.46;30.60;100925.08;1679319;84;21182;-65
2022/04/30 01:04:45;;;;;;;2.57;1.30;;;;;;;18.30;30.88;100927.50;1664403;84;21344;-58
2022/04/30 01:07:13;;;;;;;3.33;1.63;;;;;;;18.28;31.04;100918.97;1681251;84;21166;-64
2022/04/30 01:09:42;;;;;;;3.43;1.83;;;;;;;18.15;31.15;100923.36;1681594;85;21193;-58
2022/04/30 01:12:13;;;;;;;3.93;1.83;;;;;;;18.05;31.34;100920.91;1680509;85;21277;-58
2022/04/30 01:14:42;;;;;;;2.87;1.63;;;;;;;18.04;31.26;100933.30;1681627;85;21235;-58
2022/04/30 01:17:10;;;;;;;3.13;1.70;;;;;;;17.85;31.47;100939.02;1681073;85;21277;-66
2022/04/30 01:19:42;;;;;;;5.23;2.10;;;;;;;17.94;31.49;100936.40;1681999;83;21367;-58
2022/04/30 01:22:30;;;;;;;4.00;1.83;;;;;;;18.16;31.29;100928.92;1680942;83;21209;-57
2022/04/30 01:25:02;;;;;;;3.30;1.63;;;;;;;18.11;31.38;100930.61;1680572;84;21753;-57
2022/04/30 01:27:29;;;;;;;;;;;;;;;17.99;31.44;100938.38;1683779;85;21305;-60
2022/04/30 01:30:01;;;;;;;3.63;1.70;;;;;;;17.93;31.53;100938.75;1681139;85;20158;-57
2022/04/30 01:38:15;;;;;;;3.10;1.67;;;;;;;17.99;31.56;100943.66;1681694;84;22058;-58
2022/04/30 01:40:42;;;;;;;4.50;1.80;;;;;;;17.97;31.59;100942.57;1681536;83;21402;-58
2022/04/30 01:43:11;;;;;;;8.30;3.03;;;;;;;18.06;31.54;100935.19;1680788;84;22249;-57
2022/04/30 01:45:39;;;;;;;4.90;2.63;;;;;;;18.02;31.50;100942.44;1680641;83;22529;-58
2022/04/30 01:50:06;;;;;;;4.30;2.00;;;;;;;17.47;32.28;100933.25;1791580;78;22093;-61
2022/04/30 01:52:33;;;;;;;4.97;2.13;;;;;;;17.56;32.22;100931.16;1760336;79;21532;-57
2022/04/30 01:55:01;;;;;;;5.17;2.40;;;;;;;17.51;32.18;100921.77;1747405;79;21230;-59
2022/04/30 01:57:28;;;;;;;6.90;2.97;;;;;;;17.54;32.17;100927.95;1764937;80;21218;-58
2022/04/30 01:59:56;;;;;;;6.93;3.40;;;;;;;17.49;32.18;100933.02;1772405;80;21226;-55
2022/04/30 02:02:26;;;;;;;6.70;3.67;;;;;;;17.36;32.38;100935.23;1779456;80;21232;-57
2022/04/30 02:04:55;;;;;;;8.73;4.33;;;;;;;17.33;32.47;100934.33;1766937;79;21039;-60
2022/04/30 02:07:23;;;;;;;9.07;4.97;;;;;;;17.34;32.63;100931.19;1786642;80;21291;-58
2022/04/30 02:09:53;;;;;;;12.43;5.33;;;;;;;17.41;32.56;100931.96;1782290;80;21205;-62
2022/04/30 02:12:21;;;;;;;12.33;5.97;;;;;;;17.41;32.63;100934.08;1772901;80;21360;-57
2022/04/30 02:14:52;;;;;;;12.90;7.67;;;;;;;17.39;32.78;100928.23;1775072;79;21305;-57
2022/04/30 02:17:20;;;;;;;14.63;8.30;;;;;;;17.32;33.06;100924.02;1756110;79;22237;-57
2022/04/30 02:22:38;;;;;;;21.83;10.50;;;;;;;17.37;33.14;100921.55;1765475;79;21318;-63
2022/04/30 02:25:03;;;;;;;18.47;10.00;;;;;;;17.28;33.20;100925.45;1762808;79;21043;-58
2022/04/30 02:27:30;;;;;;;19.35;10.03;;;;;;;17.18;33.47;100925.38;1738488;80;21295;-60
2022/04/30 02:29:58;;;;;;;22.50;11.47;;;;;;;17.09;33.76;100927.97;1769238;80;21407;-58
2022/04/30 02:32:25;;;;;;;19.80;11.33;;;;;;;17.10;33.75;100925.63;1782047;80;21182;-60
2022/04/30 02:34:52;;;;;;;20.72;10.63;;;;;;;17.15;33.70;100921.84;1773099;80;21704;-58
2022/04/30 02:37:21;;;;;;;18.03;9.77;;;;;;;16.99;33.88;100915.75;1783641;79;21031;-59
2022/04/30 02:39:48;;;;;;;23.77;12.03;;;;;;;16.81;34.19;100924.82;1772651;80;21686;-59
2022/04/30 02:42:15;;;;;;;22.83;11.23;;;;;;;17.02;34.11;100914.02;1761289;79;21393;-66
2022/04/30 02:44:42;;;;;;;18.97;12.03;;;;;;;17.12;34.17;100919.66;1761577;80;21286;-56
2022/04/30 02:47:09;;;;;;;20.53;11.23;;;;;;;17.16;34.18;100917.38;1776552;80;21993;-65
2022/04/30 02:49:38;;;;;;;20.53;10.97;;;;;;;17.17;34.14;100913.75;1786549;80;21319;-58
2022/04/30 02:52:05;;;;;;;18.50;10.03;;;;;;;17.39;33.94;100915.56;1743917;80;21278;-63
2022/04/30 02:54:34;;;;;;;19.93;9.90;;;;;;;17.24;34.12;100924.55;1755706;80;21262;-57
2022/04/30 02:57:02;;;;;;;19.50;8.70;;;;;;;17.08;34.40;100921.06;1775091;79;21305;-56
2022/04/30 03:02:17;;;;;;;20.17;9.33;;;;;;;17.26;34.41;100926.45;1758395;79;21264;-56
2022/04/30 03:04:47;;;;;;;14.67;7.23;;;;;;;16.90;34.93;100938.88;1769351;79;21419;-57
2022/04/30 03:07:14;;;;;;;14.73;7.17;;;;;;;17.42;34.29;100940.96;1754536;80;21559;-58
2022/04/30 03:09:42;;;;;;;14.17;7.23;;;;;;;17.21;34.53;100942.61;1773907;79;21139;-57
2022/04/30 03:12:09;;;;;;;13.60;6.73;;;;;;;17.25;34.63;100941.17;1763903;79;21276;-64
2022/04/30 03:14:39;;;;;;;11.90;5.93;;;;;;;17.44;34.49;100941.58;1752301;80;21249;-57
2022/04/30 03:22:38;;;;;;;15.20;4.93;;;;;;;17.28;34.50;100942.08;1770258;79;21246;-66
2022/04/30 03:25:06;;;;;;;10.50;4.33;;;;;;;16.99;34.89;100958.69;1737542;81;21322;-57
2022/04/30 03:27:34;;;;;;;13.60;5.43;;;;;;;17.31;34.52;100957.95;1763980;80;21253;-57
2022/04/30 03:30:02;;;;;;;10.13;4.80;;;;;;;17.11;34.88;100946.19;1768034;80;22263;-58
2022/04/30 03:32:31;;;;;;;9.93;4.60;;;;;;;17.25;34.94;100963.56;1772876;79;21177;-57
2022/04/30 03:34:58;;;;;;;14.63;5.67;;;;;;;17.32;34.93;100960.91;1757319;80;21271;-65
2022/04/30 03:37:25;;;;;;;11.23;4.33;;;;;;;17.28;35.18;100971.57;1762074;79;21412;-58
2022/04/30 03:39:53;;;;;;;7.67;3.77;;;;;;;17.33;35.12;100962.52;1748439;79;22095;-65
2022/04/30 03:42:20;;;;;;;10.10;3.83;;;;;;;17.36;35.11;100964.22;1775236;79;21365;-58
2022/04/30 03:44:49;;;;;;;10.77;4.87;;;;;;;17.31;35.35;100969.81;1781209;80;21236;-59
2022/04/30 03:47:16;;;;;;;9.03;4.20;;;;;;;17.13;35.57;100971.31;1769191;80;21781;-61
2022/04/30 03:49:43;;;;;;;9.73;4.57;;;;;;;17.13;35.74;100970.00;1781109;79;21276;-65
2022/04/30 03:52:11;;;;;;;8.17;4.07;;;;;;;16.97;35.88;100975.70;1759427;79;21520;-57
2022/04/30 03:54:39;;;;;;;8.60;4.57;;;;;;;16.87;36.19;100977.47;1751436;80;21494;-58
2022/04/30 03:57:06;;;;;;;9.47;4.00;;;;;;;16.95;36.10;100972.49;1764026;79;21150;-63
2022/04/30 03:59:34;;;;;;;6.87;4.03;;;;;;;16.99;36.49;100972.37;1759764;80;21858;-59
2022/04/30 04:02:02;;;;;;;6.77;4.10;;;;;;;16.67;37.35;100984.08;1765513;80;21305;-58
2022/04/30 04:04:29;;;;;;;9.03;4.50;;;;;;;16.73;37.43;100980.63;1787570;79;21598;-57
2022/04/30 04:06:58;;;;;;;10.50;4.87;;;;;;;16.64;37.79;100989.75;1775851;79;21480;-66
2022/04/30 04:09:26;;;;;;;8.55;4.55;;;;;;;16.65;38.05;100992.67;1755305;79;21354;-61
2022/04/30 04:11:54;;;;;;;8.57;4.53;;;;;;;16.72;38.31;100989.52;1755409;79;21219;-58
2022/04/30 04:19:53;;;;;;;11.67;6.77;;;;;;;17.26;37.16;100990.20;1755700;79;22084;-58
2022/04/30 04:22:20;;;;;;;13.35;7.80;;;;;;;17.67;36.23;100995.08;1765948;79;21326;-58
2022/04/30 04:27:33;;;;;;;12.53;8.10;;;;;;;16.83;37.36;100982.86;1770348;80;21180;-58
2022/04/30 04:30:00;;;;;;;13.03;6.63;;;;;;;16.65;37.69;100986.09;1755898;80;21709;-57
2022/04/30 04:32:27;;;;;;;11.25;6.10;;;;;;;16.54;37.99;100986.71;1769137;80;21371;-61
2022/04/30 04:34:56;;;;;;;7.57;5.20;;;;;;;16.28;38.42;100987.02;1773801;80;21403;-58
2022/04/30 04:37:23;;;;;;;8.13;4.40;;;;;;;16.39;38.33;100990.88;1785012;80;21388;-57
2022/04/30 04:39:50;;;;;;;9.23;4.40;;;;;;;16.37;38.37;100985.53;1771420;80;22220;-57
2022/04/30 04:42:19;;;;;;;8.40;4.30;;;;;;;16.37;38.44;100993.42;1781481;80;21546;-65
2022/04/30 04:44:48;;;;;;;8.77;4.23;;;;;;;16.49;38.19;100987.84;1755798;79;21408;-59
2022/04/30 04:47:15;;;;;;;7.80;4.50;;;;;;;16.67;38.15;100990.66;1776046;79;21267;-57
2022/04/30 04:49:44;;;;;;;9.50;4.37;;;;;;;16.62;38.17;100990.44;1772930;79;21059;-58
2022/04/30 04:52:11;;;;;;;9.27;4.53;;;;;;;16.58;38.24;100990.55;1768074;79;21895;-59
2022/04/30 04:54:38;;;;;;;10.73;4.00;;;;;;;16.68;38.20;100994.09;1760638;79;21269;-58
2022/04/30 04:57:06;;;;;;;9.17;4.20;;;;;;;16.58;38.60;100989.75;1767324;80;21834;-58
2022/04/30 04:59:33;;;;;;;9.53;4.08;;;;;;;16.56;38.63;100987.84;1774542;80;21488;-59
2022/04/30 05:02:02;;;;;;;8.25;4.00;;;;;;;16.43;38.85;100987.33;1774190;79;21195;-57
2022/04/30 05:04:29;;;;;;;10.40;3.92;;;;;;;16.52;38.35;100987.44;1784412;80;20892;-59
2022/04/30 05:06:57;;;;;;;6.25;3.15;;;;;;;16.72;38.06;100992.67;1782820;79;21330;-57
2022/04/30 05:09:26;;;;;;;7.63;3.23;;;;;;;16.80;37.61;100995.11;1786705;80;21643;-56
2022/04/30 05:11:54;;;;;;;5.83;2.80;;;;;;;16.82;37.37;100994.41;1757778;80;21230;-57
2022/04/30 05:14:21;;;;;;;8.53;2.60;;;;;;;16.74;37.26;100991.49;1742921;80;21310;-60
2022/04/30 05:16:49;;;;;;;8.40;3.03;;;;;;;16.76;37.39;100992.08;1770867;80;21148;-57
2022/04/30 05:19:17;;;;;;;4.45;2.27;;;;;;;16.72;37.25;100988.20;1767113;80;21386;-57
2022/04/30 05:21:44;;;;;;;5.67;2.23;;;;;;;16.80;37.24;100992.98;1779322;80;21050;-58
2022/04/30 05:24:11;;;;;;;6.67;2.37;;;;;;;16.94;37.16;100988.00;1763514;80;21385;-65
2022/04/30 05:26:38;;;;;;;3.67;1.73;;;;;;;16.73;37.56;100997.75;1764459;80;21701;-57
2022/04/30 05:29:06;;;;;;;4.33;1.60;;;;;;;16.84;38.25;101001.58;1748702;80;22106;-58
2022/04/30 05:31:33;;;;;;;4.55;2.00;;;;;;;16.96;39.05;100983.31;1771412;80;21070;-57
2022/04/30 05:34:01;;;;;;;2.77;1.20;;;;;;;16.91;39.02;100989.21;1783819;79;20911;-57
2022/04/30 05:36:28;;;;;;;3.22;1.70;;;;;;;17.13;39.30;100985.81;1767723;80;21228;-58
2022/04/30 05:38:56;;;;;;;2.47;1.47;;;;;;;17.11;39.14;100978.61;1784003;80;21324;-56
2022/04/30 05:41:25;;;;;;;3.43;1.73;;;;;;;17.17;39.17;100981.73;1782231;80;22070;-57
2022/04/30 05:43:52;;;;;;;4.50;2.10;;;;;;;17.29;38.37;100983.72;1765046;80;21423;-60
2022/04/30 05:46:19;;;;;;;7.63;2.33;;;;;;;17.23;38.05;100985.34;1753874;80;21707;-62
2022/04/30 05:48:46;;;;;;;6.43;2.67;;;;;;;17.33;37.69;100984.41;1760580;80;21670;-57
2022/04/30 05:51:14;;;;;;;5.77;2.33;;;;;;;17.50;37.01;100979.44;1781205;80;21298;-57
2022/04/30 05:53:41;;;;;;;6.20;2.67;;;;;;;17.58;36.56;100979.22;1760367;80;21213;-56
2022/04/30 05:56:08;;;;;;;7.10;2.57;;;;;;;17.69;36.29;100977.23;1755924;80;21245;-58
2022/04/30 05:58:35;;;;;;;5.75;2.67;;;;;;;17.69;36.12;100985.14;1759587;80;21908;-64
2022/04/30 06:01:03;;;;;;;6.97;2.80;;;;;;;17.93;35.83;100969.59;1776113;80;21460;-57
2022/04/30 06:03:34;;;;;;;5.27;2.60;;;;;;;17.98;35.66;100974.52;1762534;79;21254;-57
2022/04/30 06:06:01;;;;;;;5.20;2.47;;;;;;;17.95;35.69;100966.22;1755409;79;21432;-56
2022/04/30 06:08:28;;;;;;;6.23;2.67;;;;;;;17.75;36.07;100972.95;1752709;80;21424;-65
2022/04/30 06:10:58;;;;;;;5.10;2.20;;;;;;;17.55;36.71;100977.52;1786472;80;21076;-57
2022/04/30 06:13:25;;;;;;;4.47;2.30;;;;;;;17.50;37.07;100976.80;1787644;80;21162;-57
2022/04/30 06:15:53;;;;;;;4.17;2.00;;;;;;;17.46;37.60;100978.25;1776933;79;21956;-58
2022/04/30 06:18:20;;;;;;;4.20;2.00;;;;;;;17.62;37.50;100973.82;1762692;79;21215;-60
2022/04/30 06:20:47;;;;;;;5.03;1.83;;;;;;;17.57;37.47;100981.54;1766594;79;21241;-58
2022/04/30 06:23:18;;;;;;;3.50;1.90;;;;;;;17.46;37.45;100983.52;1756148;79;21775;-59
2022/04/30 06:25:45;;;;;;;7.20;1.80;;;;;;;17.68;37.23;100985.34;1739989;80;21964;-56
2022/04/30 06:28:13;;;;;;;3.77;1.70;;;;;;;17.71;37.25;100987.55;1773197;80;21875;-63
2022/04/30 06:30:42;;;;;;;7.30;1.60;;;;;;;17.74;37.38;100982.67;1782603;79;21170;-57
2022/04/30 06:33:10;;;;;;;3.27;1.60;;;;;;;17.72;37.30;100988.65;1773675;79;21355;-58
2022/04/30 06:35:37;;;;;;;2.37;1.27;;;;;;;17.71;37.20;100984.91;1766272;80;21406;-58
2022/04/30 06:38:06;;;;;;;4.23;1.70;;;;;;;17.80;37.15;100990.77;1776942;80;21811;-57
2022/04/30 06:40:33;;;;;;;3.93;1.30;;;;;;;17.92;37.14;100986.45;1780004;79;21270;-65
2022/04/30 06:43:02;;;;;;;3.47;1.50;;;;;;;18.18;37.14;100988.06;1776494;80;21492;-58
2022/04/30 06:45:30;;;;;;;2.27;1.30;;;;;;;18.18;37.02;100991.53;1755472;79;21701;-57
2022/04/30 06:47:58;;;;;;;4.13;1.90;;;;;;;18.38;36.83;100987.92;1770584;80;21467;-60
2022/04/30 06:50:25;;;;;;;3.87;1.43;;;;;;;18.53;37.07;100989.71;1777453;80;21301;-57
2022/04/30 06:58:24;;;;;;;3.10;1.60;;;;;;;19.02;36.81;100991.17;1749754;80;21195;-64
2022/04/30 07:03:27;;;;;;;3.30;1.50;;;;;;;19.12;36.06;100983.52;1762873;80;21179;-57
2022/04/30 07:06:02;;;;;;;3.12;1.65;;;;;;;19.13;36.14;100989.09;1760912;79;21252;-65
2022/04/30 07:08:25;;;;;;;3.33;1.73;;;;;;;19.09;35.84;100988.75;1739753;79;21505;-64
2022/04/30 07:10:54;;;;;;;2.30;1.30;;;;;;;19.01;35.95;100990.34;1777888;80;21383;-60
2022/04/30 07:13:22;;;;;;;3.37;1.97;;;;;;;18.77;36.58;100997.84;1781063;80;21294;-57
2022/04/30 07:15:49;;;;;;;3.23;1.80;;;;;;;18.83;36.70;100994.33;1768326;79;21326;-64
2022/04/30 07:18:18;;;;;;;3.00;1.63;;;;;;;18.83;36.64;100995.13;1787295;80;21237;-67
2022/04/30 07:20:45;;;;;;;6.47;1.67;;;;;;;18.92;36.47;100993.00;1784759;80;21290;-56
2022/04/30 07:23:12;;;;;;;3.90;1.40;;;;;;;19.07;36.26;100984.70;1778222;80;21401;-56
2022/04/30 07:25:40;;;;;;;4.63;1.60;;;;;;;19.13;35.98;100981.99;1757371;79;21151;-59
2022/04/30 07:28:07;;;;;;;3.30;1.27;;;;;;;18.91;35.90;100985.59;1774427;80;21282;-63
2022/04/30 07:30:36;;;;;;;4.17;1.50;;;;;;;18.95;36.17;100983.32;1764584;80;21831;-57
2022/04/30 07:33:04;;;;;;;4.43;1.70;;;;;;;19.08;35.73;100979.19;1751977;80;21273;-56
2022/04/30 07:35:31;;;;;;;4.17;1.57;;;;;;;19.29;35.81;100980.58;1766737;79;21313;-57
2022/04/30 07:37:58;;;;;;;3.97;1.73;;;;;;;19.51;35.50;100980.91;1764435;79;21743;-58
2022/04/30 07:40:25;;;;;;;3.50;1.60;;;;;;;19.51;35.50;100980.91;1756853;80;21928;-59
2022/04/30 07:42:52;;;;;;;3.10;1.80;;;;;;;19.67;34.80;100982.94;1768184;79;21842;-57
2022/04/30 07:45:20;;;;;;;3.80;1.90;;;;;;;19.66;35.01;100986.63;1749493;79;21290;-57
2022/04/30 07:47:48;;;;;;;4.33;2.00;;;;;;;20.01;34.71;100980.61;1760590;79;21220;-58
2022/04/30 07:50:17;;;;;;;4.83;1.90;;;;;;;20.01;34.71;100980.61;1741196;79;21409;-57
2022/04/30 07:52:43;;;;;;;4.33;1.80;;;;;;;20.66;33.81;100977.09;1780071;80;22121;-58
2022/04/30 07:55:11;;;;;;;4.10;1.40;;;;;;;20.96;33.44;100966.84;1787719;80;22118;-56
2022/04/30 07:57:38;;;;;;;3.40;1.57;;;;;;;20.96;33.44;100966.84;1761044;79;21435;-57
2022/04/30 08:00:06;;;;;;;3.07;1.40;;;;;;;20.92;33.31;100976.31;1764079;79;21777;-56
2022/04/30 08:02:34;;;;;;;5.60;2.07;;;;;;;21.07;33.03;100972.12;1751490;80;21809;-56
2022/04/30 08:05:03;;;;;;;4.87;2.00;;;;;;;21.10;32.77;100968.17;1737226;80;21694;-56
2022/04/30 08:07:31;;;;;;;2.53;1.13;;;;;;;21.37;32.38;100959.99;1771359;79;21387;-57
2022/04/30 08:10:00;;;;;;;3.43;1.60;;;;;;;21.49;32.25;100959.14;1763142;79;22170;-57
2022/04/30 08:12:27;;;;;;;2.67;1.10;;;;;;;21.54;32.26;100961.34;1779913;80;21133;-57
2022/04/30 08:14:54;;;;;;;4.07;1.83;;;;;;;21.69;32.41;100960.81;1787382;80;21114;-63
2022/04/30 08:17:21;;;;;;;3.13;1.53;;;;;;;21.99;32.32;100960.51;1755110;79;22234;-55
2022/04/30 08:19:49;;;;;;;4.47;1.83;;;;;;;22.21;31.64;100959.29;1755889;80;21151;-64
2022/04/30 08:22:16;;;;;;;2.73;1.40;;;;;;;22.48;31.84;100954.09;1769891;80;21570;-58
2022/04/30 08:24:43;;;;;;;2.17;1.40;;;;;;;22.64;30.92;100952.44;1779840;80;21594;-60
2022/04/30 08:27:11;;;;;;;3.27;1.37;;;;;;;22.73;30.59;100949.65;1785117;79;21735;-57
2022/04/30 08:29:39;;;;;;;2.67;1.17;;;;;;;22.92;30.91;100948.84;1779063;80;20959;-56
2022/04/30 08:32:07;;;;;;;1.90;1.10;;;;;;;22.92;30.01;100941.37;1755727;80;21563;-56
2022/04/30 08:34:34;;;;;;;2.97;1.20;;;;;;;23.00;30.21;100939.09;1741135;81;22405;-56
2022/04/30 08:37:02;;;;;;;2.07;0.90;;;;;;;23.20;29.94;100938.50;1754738;80;21044;-55
2022/04/30 08:39:31;;;;;;;2.60;1.00;;;;;;;23.04;29.99;100939.41;1769995;80;21296;-56
2022/04/30 08:41:58;;;;;;;5.17;1.10;;;;;;;23.01;29.85;100935.37;1785810;79;21444;-57
2022/04/30 08:44:26;;;;;;;3.20;1.47;;;;;;;22.91;30.02;100935.75;1764637;79;21919;-57
2022/04/30 08:46:53;;;;;;;2.60;1.67;;;;;;;22.90;29.86;100939.47;1755643;80;20942;-57
2022/04/30 08:49:21;;;;;;;2.07;1.23;;;;;;;22.96;30.14;100934.53;1739187;80;21158;-56
2022/04/30 08:51:48;;;;;;;3.23;1.63;;;;;;;22.99;29.86;100922.84;1766173;79;20979;-58
2022/04/30 08:54:15;;;;;;;3.47;2.13;;;;;;;22.97;29.90;100934.80;1774198;79;21022;-63
2022/04/30 08:56:53;;;;;;;2.70;1.40;;;;;;;22.99;29.95;100934.01;1772210;79;21939;-56
2022/04/30 08:59:20;;;;;;;2.90;1.43;;;;;;;23.01;29.93;100919.42;1773417;80;21045;-57
2022/04/30 09:01:53;;;;;;;8.03;4.70;;;;;;;23.09;30.00;100925.36;1769562;80;21484;-57
2022/04/30 09:04:20;;;;;;;5.03;2.33;;;;;;;23.10;30.20;100920.30;1741947;80;21068;-56
2022/04/30 09:06:52;;;;;;;5.70;3.20;;;;;;;23.19;29.94;100911.64;1748097;80;21066;-58
2022/04/30 09:09:25;;;;;;;5.43;4.13;;;;;;;23.30;29.96;100931.17;1763509;80;21325;-56
2022/04/30 09:11:57;;;;;;;2.60;1.80;;;;;;;23.51;30.26;100918.31;1774198;79;21024;-58
2022/04/30 09:14:25;;;;;;;1.73;0.90;;;;;;;23.70;30.11;100921.43;1767150;79;21041;-56
2022/04/30 09:17:05;;;;;;;1.73;1.13;;;;;;;24.02;29.61;100920.62;1782254;79;21532;-57
2022/04/30 09:19:37;;;;;;;3.20;1.00;;;;;;;24.34;29.18;100923.73;1781243;79;21094;-56
2022/04/30 09:22:03;;;;;;;1.70;0.83;;;;;;;24.62;28.28;100914.02;1757144;80;21155;-57
2022/04/30 09:24:31;;;;;;;2.60;1.00;;;;;;;24.80;28.30;100909.30;1754670;79;21069;-57
2022/04/30 09:27:03;;;;;;;2.07;1.00;;;;;;;25.20;27.90;100905.97;1778155;80;21012;-57
2022/04/30 09:29:30;;;;;;;2.87;1.40;;;;;;;25.70;27.31;100909.19;1776476;79;21082;-56
2022/04/30 09:31:57;;;;;;;4.30;0.80;;;;;;;25.99;26.55;100901.16;1763975;79;21812;-61
2022/04/30 09:39:56;;;;;;;3.00;1.43;;;;;;;25.65;26.77;100889.72;1753844;79;21712;-57
2022/04/30 09:42:23;;;;;;;3.77;1.53;;;;;;;25.52;26.87;100886.23;1759736;80;21522;-56
2022/04/30 09:44:53;;;;;;;4.60;1.90;;;;;;;25.35;27.29;100891.31;1762924;80;20947;-58
2022/04/30 09:47:20;;;;;;;4.83;2.10;;;;;;;25.28;26.97;100892.10;1764105;79;21309;-57
2022/04/30 09:55:19;;;;;;;3.20;1.40;;;;;;;25.20;27.46;100885.42;1765268;80;21785;-61
2022/04/30 09:57:46;;;;;;;3.23;1.47;;;;;;;25.44;26.82;100888.36;1772820;79;21070;-57
2022/04/30 10:00:15;;;;;;;4.10;1.70;;;;;;;25.36;27.00;100894.23;1770141;79;21255;-57
2022/04/30 10:02:45;;;;;;;2.70;1.60;;;;;;;25.51;26.57;100885.98;1760452;80;20967;-60
2022/04/30 10:05:11;;;;;;;3.13;1.67;;;;;;;25.68;26.42;100888.65;1761830;79;20993;-57
2022/04/30 10:07:40;;;;;;;3.50;1.80;;;;;;;25.88;26.18;100889.19;1765146;79;21066;-59
2022/04/30 10:10:32;;;;;;;3.43;1.70;;;;;;;26.04;25.82;100884.60;1760902;80;21427;-57
2022/04/30 10:13:13;;;;;;;3.73;1.73;;;;;;;26.30;25.74;100881.33;1770367;80;21885;-57
2022/04/30 10:15:57;;;;;;;2.90;1.70;;;;;;;26.30;25.94;100881.87;1766957;80;21392;-57
2022/04/30 10:18:42;;;;;;;3.73;1.50;;;;;;;26.40;26.10;100875.95;1780978;79;21014;-59
2022/04/30 10:21:06;;;;;;;4.23;2.20;;;;;;;27.00;25.38;100859.06;1756971;80;21071;-58
2022/04/30 10:23:34;;;;;;;3.40;1.80;;;;;;;26.98;25.54;100862.58;1739348;80;21498;-56
2022/04/30 10:26:07;;;;;;;3.87;1.83;;;;;;;26.45;25.13;100880.47;1758080;79;22342;-57
2022/04/30 10:28:35;;;;;;;4.13;1.90;;;;;;;26.16;26.03;100877.09;1764956;79;21062;-58
2022/04/30 10:31:13;;;;;;;3.53;1.90;;;;;;;26.31;25.83;100869.55;1754984;80;21092;-58
2022/04/30 10:33:49;;;;;;;3.67;1.90;;;;;;;26.59;25.19;100864.65;1765508;79;21103;-58
2022/04/30 10:36:18;;;;;;;5.57;2.50;;;;;;;26.76;25.02;100862.43;1712564;82;20997;-64
2022/04/30 10:38:59;;;;;;;4.60;2.40;;;;;;;26.39;25.29;100860.97;1733128;80;20978;-58
2022/04/30 10:41:26;;;;;;;3.50;1.60;;;;;;;26.41;25.87;100861.51;1755535;80;20972;-58
2022/04/30 10:44:02;;;;;;;3.67;2.17;;;;;;;26.67;25.06;100844.04;1739478;80;21351;-64
2022/04/30 10:46:38;;;;;;;4.27;2.23;;;;;;;26.79;24.86;100837.81;1751404;80;21578;-57
2022/04/30 10:49:06;;;;;;;4.73;1.97;;;;;;;26.65;25.01;100841.63;1757396;80;21024;-57
2022/04/30 10:51:42;;;;;;;3.73;2.30;;;;;;;26.36;25.50;100844.67;1750774;80;21160;-57
2022/04/30 10:54:16;;;;;;;3.63;2.07;;;;;;;25.99;25.60;100837.05;1768006;80;21093;-57
2022/04/30 10:56:43;;;;;;;3.50;1.83;;;;;;;25.93;26.46;100842.42;1765854;80;21045;-57
2022/04/30 10:59:10;;;;;;;4.03;2.07;;;;;;;26.16;25.90;100835.66;1763574;80;21828;-58
2022/04/30 11:01:37;;;;;;;2.60;1.40;;;;;;;26.09;25.83;100834.36;1750003;80;21075;-57
2022/04/30 11:04:05;;;;;;;4.17;1.90;;;;;;;25.83;26.08;100839.77;1755860;80;21263;-57
2022/04/30 11:06:32;;;;;;;5.13;2.20;;;;;;;25.53;26.47;100837.11;1727336;80;21042;-65
2022/04/30 11:09:06;;;;;;;5.67;2.40;;;;;;;25.42;26.84;100826.46;1725232;80;21164;-57
2022/04/30 11:11:33;;;;;;;4.43;2.50;;;;;;;26.02;26.22;100828.50;1741781;80;20963;-61
2022/04/30 11:14:10;;;;;;;4.53;1.80;;;;;;;26.70;25.56;100820.73;1718657;80;21534;-57
2022/04/30 11:16:40;;;;;;;3.70;2.40;;;;;;;26.88;25.41;100819.29;1722022;80;21231;-58
2022/04/30 11:19:10;;;;;;;4.33;2.12;;;;;;;26.60;25.17;100824.28;1732329;81;21513;-58
2022/04/30 11:21:39;;;;;;;3.47;1.87;;;;;;;25.95;25.61;100822.13;1745913;80;21023;-59
2022/04/30 11:24:07;;;;;;;3.23;2.00;;;;;;;26.02;25.78;100815.94;1731203;80;20958;-57
2022/04/30 11:26:41;;;;;;;5.57;3.33;;;;;;;26.37;25.74;100823.03;1736951;80;20947;-63
2022/04/30 11:29:13;;;;;;;3.27;2.03;;;;;;;26.48;25.36;100813.64;1768499;80;22307;-65
2022/04/30 11:31:45;;;;;;;4.10;1.50;;;;;;;26.20;25.53;100807.86;1749274;80;21139;-59
2022/04/30 11:34:13;;;;;;;3.27;1.63;;;;;;;25.94;25.71;100805.81;1727077;80;21073;-57
2022/04/30 11:36:46;;;;;;;2.63;1.40;;;;;;;25.96;25.58;100803.14;1754294;80;21067;-59
2022/04/30 11:39:14;;;;;;;3.43;2.00;;;;;;;26.02;25.99;100792.44;1753196;80;21251;-58
2022/04/30 11:41:42;;;;;;;3.50;2.20;;;;;;;26.25;25.92;100789.66;1745861;80;21108;-58
2022/04/30 11:44:12;;;;;;;3.87;2.30;;;;;;;26.48;25.89;100785.56;1738265;80;20964;-58
2022/04/30 11:46:42;;;;;;;4.40;2.10;;;;;;;26.79;25.60;100780.84;1764339;80;21098;-59
2022/04/30 11:49:16;;;;;;;4.53;2.90;;;;;;;26.97;25.32;100780.69;1739654;80;20984;-59
2022/04/30 11:51:43;;;;;;;5.23;2.57;;;;;;;26.61;25.46;100780.95;1762086;80;21060;-59
2022/04/30 11:54:13;;;;;;;5.53;2.87;;;;;;;26.20;25.60;100777.13;1742305;80;21814;-58
2022/04/30 11:56:42;;;;;;;4.23;2.40;;;;;;;26.06;25.79;100771.57;1734993;81;21069;-58
2022/04/30 11:59:12;;;;;;;6.03;2.47;;;;;;;26.00;25.84;100769.22;1767173;80;21040;-57
2022/04/30 12:01:42;;;;;;;4.10;2.10;;;;;;;25.73;26.41;100764.47;1766471;80;21481;-59
2022/04/30 12:04:18;;;;;;;4.27;2.10;;;;;;;25.45;27.12;100771.19;1761829;80;21167;-58
2022/04/30 12:06:45;;;;;;;5.57;2.10;;;;;;;25.36;27.01;100768.02;1752862;80;21111;-66
2022/04/30 12:09:14;;;;;;;4.00;1.93;;;;;;;25.25;27.45;100759.21;1737680;80;21075;-57
2022/04/30 12:11:50;;;;;;;5.47;2.50;;;;;;;25.26;27.24;100754.67;1730560;80;20988;-57
2022/04/30 12:14:18;;;;;;;4.00;2.17;;;;;;;25.20;27.31;100763.23;1734857;80;21112;-57
2022/04/30 12:16:48;;;;;;;3.40;2.70;;;;;;;25.14;27.70;100747.74;1739067;80;20963;-61